Tiempo atmosférico en la estación meteorológica de Cieza, Murcia (265 m.)



Fecha
DESCASC
Temp. máxima en grados centígrados (hora)
DESCASC
Temp. mínima en grados centígrados (hora)
DESCASC
Temp. media en grados centígrados
DESCASC
Racha de viento máxima en m/sg (hora)
DESCASC
Velocidad máxima media en intervalos de 10 minutos(hora)
DESCASC
Precipitaciones diarias en mm
DESCASC
Precipitaciones de 00:00 a 06:00 en mm
DESCASC
Precipitaciones de 06:00 a 12:00 en mm
DESCASC
Precipitaciones de 12:00 a 18:00 en mm
DESCASC
Precipitaciones de 18:00 a 24:00 en mm
DESCASC
10-07-2020 35.2 (16:30) 18.7 (07:40) 27 10.83 (19:10) 6.94 (20:20) 0 0 0 0 0
09-07-2020 33.7 (16:30) 20.4 (07:10) 27.1 11.39 (18:50) 7.22 (19:40) 0.1 0.1 0 0 0
08-07-2020 32.8 (15:30) 19 (06:50) 25.9 10.28 (16:10) 7.22 (19:10) 0 0 0 0 0
07-07-2020 37.5 (16:00) 18.2 (06:50) 27.9 9.72 (18:50) 5.83 (21:20) 0 0 0 0 0
06-07-2020 35.8 (15:40) 18.3 (00:00) 27 10 (19:10) 4.72 (18:40) 0 0 0 0 0
05-07-2020 34.3 (15:40) 17.4 (00:00) 25.8 10.83 (16:30) 5.28 (16:30) 0 0 0 0 0
04-07-2020 33.4 (16:40) 20.6 (00:00) 27 10.56 (19:10) 5.83 (16:50) 0 0 0 0 0
03-07-2020 33.9 (15:30) 19.9 (07:10) 26.9 12.5 (17:00) 6.11 (18:10) 0 0 0 0 0
02-07-2020 39 (15:30) 20 (00:00) 29.5 10 (18:20) 5.28 (18:30) 0 0 0 0 0
01-07-2020 40.3 (16:40) 17 (00:00) 28.6 4.44 (21:30) 1.94 (22:00) 0 0 0 0 0
30-06-2020 34.6 (15:30) 16.6 (00:00) 25.6 10 (16:50) 6.11 (18:50) 0 0 0 0 0
29-06-2020 33.9 (16:00) 16.9 (00:00) 25.4 12.22 (17:10) 5.83 (14:40) 0 0 0 0 0
28-06-2020 34.6 (15:50) 18 (00:00) 26.3 10.28 (18:20) 5.83 (17:50) 0 0 0 0 0
27-06-2020 36.5 (17:20) 19.1 (00:00) 27.8 10.28 (19:10) 5 (21:00) 0 0 0 0 0
26-06-2020 34 (15:50) 17.6 (00:00) 25.8 10 (16:00) 5 (16:00) 0 0 0 0 0
25-06-2020 34 (16:00) 16.6 (00:00) 25.3 10 (19:20) 5.83 (17:50) 0 0 0 0 0
24-06-2020 33 (17:20) 16.9 (00:00) 24.9 8.89 (19:10) 6.11 (19:10) 0 0 0 0 0
23-06-2020 31.5 (14:00) 16.2 (00:00) 23.9 10 (20:30) 7.22 (20:10) 0 0 0 0 0
22-06-2020 32.2 (15:40) 16.6 (00:00) 24.4 11.11 (15:20) 5.28 (15:20) 0 0 0 0 0
21-06-2020 35 (15:50) 17.5 (00:00) 26.3 11.39 (17:10) 5.56 (20:10) 0 0 0 0 0
20-06-2020 33.5 (17:00) 15.3 (00:00) 24.4 10.56 (17:50) 5.28 (21:40) 0 0 0 0 0
19-06-2020 30.7 (15:40) 18.6 (00:00) 24.7 11.39 (17:40) 6.39 (00:10) 0 0 0 0 0
18-06-2020 31 (15:40) 16.5 (00:00) 23.8 11.67 (19:10) 6.39 (18:20) 0 0 0 0 0
17-06-2020 30.7 (15:00) 15.5 (00:00) 23.1 11.94 (16:30) 7.22 (16:30) 0 0 0 0 0
16-06-2020 33.3 (16:20) 16.8 (00:00) 25 10 (17:00) 4.44 (16:50) 0 0 0 0 0
15-06-2020 33.9 (17:00) 15.1 (00:00) 24.5 10.56 (18:00) 5.28 (18:00) 0 0 0 0 0
14-06-2020 32 (17:50) 14 (00:00) 23 9.44 (19:30) 4.72 (18:40) 0 0 0 0 0
13-06-2020 29.9 (18:40) 14.7 (00:00) 22.3 9.17 (11:00) 5 (19:50) 0 0 0 0 0
12-06-2020 28.9 (15:40) 15.7 (00:00) 22.3 9.17 (16:40) 4.44 (00:40) 0 0 0 0 0

Gráficas

Temp. máximas Temp. mínimas Temp. medias Precipitaciones Rachas de viento máximas Velocidades máximas media en intervalos de 10 minutos

Datos horarios

Fecha y hora oficial Temperatura (ºC) Velocidad del viento (km/h) Dirección del viento Racha (km/h) Dirección de racha Precipitación (mm) Presión (hPa) Tendencia (hPa) Humedad (%)
2020-07-11 23:00:00 25.5 15 Sudeste 24 Sudeste 0 -- -- 51
2020-07-11 22:00:00 26.2 16 Sudeste 31 Sudeste 0 -- -- 47
2020-07-11 21:00:00 27.7 15 Sudeste 37 Sudeste 0 -- -- 44
2020-07-11 20:00:00 29.5 21 Sudeste 43 Sudeste 0 -- -- 40
2020-07-11 19:00:00 31 22 Sudeste 41 Sudeste 0 -- -- 39
2020-07-11 18:00:00 32.4 17 Sudeste 41 Sudeste 0 -- -- 36
2020-07-11 17:00:00 32.9 28 Sudeste 42 Sudeste 0 -- -- 35
2020-07-11 16:00:00 34.2 17 Sudeste 34 Sudeste 0 -- -- 35
2020-07-11 15:00:00 33.9 15 Sudeste 32 Sudeste 0 -- -- 31
2020-07-11 14:00:00 33.7 12 Sudeste 31 Sudeste 0 -- -- 33
2020-07-11 13:00:00 32.4 7 Sudeste 16 Sudeste 0 -- -- 36
2020-07-11 12:00:00 29.6 5 Oeste 13 Oeste 0 -- -- 46
2020-07-11 11:00:00 26.7 8 Oeste 15 Oeste 0 -- -- 57
2020-07-11 10:00:00 24.4 9 Oeste 16 Oeste 0 -- -- 68
2020-07-11 09:00:00 22 6 Oeste 12 Oeste 0 -- -- 78
2020-07-11 08:00:00 19.8 7 Oeste 11 Oeste 0 -- -- 90
2020-07-11 07:00:00 19.8 2 Noroeste 11 Oeste 0 -- -- 91
2020-07-11 06:00:00 20.7 3 Oeste 8 Oeste 0 -- -- 89
2020-07-11 05:00:00 20.7 0 Calma 8 Oeste 0 -- -- 90
2020-07-11 04:00:00 21.1 2 Oeste 4 Sudoeste 0 -- -- 90
2020-07-11 03:00:00 21.5 0 Calma 0 Calma 0 -- -- 88
2020-07-11 02:00:00 22.4 2 Sudeste 7 Sudeste 0 -- -- 88
2020-07-11 01:00:00 23.2 3 Sudeste 8 Sudeste 0 -- -- 86
2020-07-11 00:00:00 24 3 Este 15 Sudeste 0 -- -- 82
2020-07-10 23:00:00 24.7 11 Sudeste 28 Sudeste 0 -- -- 77
2020-07-10 22:00:00 25.5 17 Sudeste 31 Sudeste 0 -- -- 74
2020-07-10 21:00:00 27.2 13 Sudeste 35 Sudeste 0 -- -- 60
2020-07-10 20:00:00 29.3 17 Sudeste 39 Sudeste 0 -- -- 52
2020-07-10 19:00:00 30.3 19 Sudeste 38 Sudeste 0 -- -- 47
2020-07-10 18:00:00 32.4 17 Sudeste 37 Sudeste 0 -- -- 41
2020-07-10 17:00:00 33.3 17 Sudeste 33 Sudeste 0 -- -- 35
2020-07-10 16:00:00 34.1 10 Sudeste 25 Sudeste 0 -- -- 33
2020-07-10 15:00:00 34 10 Sudeste 22 Sudeste 0 -- -- 33
2020-07-10 14:00:00 33.4 7 Sudeste 20 Sudeste 0 -- -- 35
2020-07-10 13:00:00 32.3 4 Este 17 Sudeste 0 -- -- 37
2020-07-10 12:00:00 29.2 6 Oeste 15 Oeste 0 -- -- 49
2020-07-10 11:00:00 26.4 7 Oeste 16 Oeste 0 -- -- 59
2020-07-10 10:00:00 23.9 6 Oeste 16 Oeste 0 -- -- 65
2020-07-10 09:00:00 21.7 3 Noroeste 15 Oeste 0 -- -- 72
2020-07-10 08:00:00 18.9 10 Oeste 14 Noroeste 0 -- -- 78
2020-07-10 07:00:00 18.9 8 Oeste 13 Oeste 0 -- -- 78
2020-07-10 06:00:00 19.3 3 Oeste 11 Oeste 0 -- -- 77
2020-07-10 05:00:00 19.9 3 Oeste 8 Oeste 0 -- -- 75
2020-07-10 04:00:00 21.1 6 Oeste 9 Oeste 0 -- -- 71
2020-07-10 03:00:00 21.6 7 Oeste 12 Noroeste 0 -- -- 71
2020-07-10 02:00:00 22.1 7 Oeste 12 Oeste 0 -- -- 70
2020-07-10 01:00:00 22.4 0 Calma 11 Sudeste 0 -- -- 70
2020-07-10 00:00:00 23.2 0 Calma 9 Sur 0 -- -- 65
2020-07-09 23:00:00 24.9 4 Sudeste 15 Sudeste 0 -- -- 59
2020-07-09 22:00:00 25.8 13 Sudeste 31 Sudeste 0 -- -- 54
2020-07-09 21:00:00 27 16 Sudeste 36 Sudeste 0 -- -- 46
2020-07-09 20:00:00 29.2 18 Sudeste 39 Sudeste 0 -- -- 41
2020-07-09 19:00:00 30.3 19 Sudeste 41 Sudeste 0 -- -- 40
2020-07-09 18:00:00 30.7 24 Sudeste 40 Sudeste 0 -- -- 38
2020-07-09 17:00:00 32.4 17 Sudeste 35 Sudeste 0 -- -- 35
2020-07-09 16:00:00 33 18 Sudeste 40 Sudeste 0 -- -- 34
2020-07-09 15:00:00 32.4 13 Sudeste 40 Sudeste 0 -- -- 36
2020-07-09 14:00:00 31.5 16 Sudeste 34 Sudeste 0 -- -- 37
2020-07-09 13:00:00 31.5 8 Sudeste 21 Este 0 -- -- 37
2020-07-09 12:00:00 29.6 3 Oeste 15 Oeste 0 -- -- 47
2020-07-09 11:00:00 27.4 8 Oeste 15 Noroeste 0 -- -- 56
2020-07-09 10:00:00 24.6 9 Oeste 17 Oeste 0 -- -- 67
2020-07-09 09:00:00 22.5 8 Oeste 15 Noroeste 0 -- -- 77
2020-07-09 08:00:00 20.9 10 Oeste 15 Oeste 0 -- -- 82
2020-07-09 07:00:00 20.6 6 Oeste 13 Oeste 0 -- -- 83
2020-07-09 06:00:00 21.2 8 Oeste 14 Noroeste 0 -- -- 81
2020-07-09 05:00:00 21.7 3 Noroeste 10 Nordeste 0 -- -- 77
2020-07-09 04:00:00 22.5 2 Este 13 Oeste 0 -- -- 75
2020-07-09 03:00:00 23.2 3 Sur 17 Sudeste 0.1 -- -- 76
2020-07-09 02:00:00 24.4 8 Sudoeste 18 Sudoeste 0 -- -- 67
2020-07-09 01:00:00 23.8 12 Sur 30 Sudeste 0 -- -- 77
2020-07-09 00:00:00 24.4 19 Sudeste 33 Sudeste 0 -- -- 70
2020-07-08 23:00:00 24.3 21 Sudeste 36 Sudeste 0 -- -- 75
2020-07-08 22:00:00 25.6 22 Sudeste 32 Sudeste 0 -- -- 60
2020-07-08 21:00:00 27 13 Sudeste 33 Sudeste 0 -- -- 51
2020-07-08 20:00:00 27.7 17 Sudeste 37 Sudeste 0 -- -- 49
2020-07-08 19:00:00 28.7 18 Sudeste 36 Sudeste 0 -- -- 41
2020-07-08 18:00:00 29.4 8 Sudeste 28 Sudeste 0 -- -- 39
2020-07-08 17:00:00 30.6 13 Sudeste 37 Sudeste 0 -- -- 37
2020-07-08 16:00:00 31.9 18 Sudeste 37 Este 0 -- -- 36
2020-07-08 15:00:00 31.8 14 Sudeste 36 Sudeste 0 -- -- 36
2020-07-08 14:00:00 31.6 15 Sudeste 35 Sudeste 0 -- -- 36
2020-07-08 13:00:00 29.8 17 Sudeste 36 Sudeste 0 -- -- 36
2020-07-08 12:00:00 29.3 15 Sudeste 31 Sudeste 0 -- -- 44
2020-07-08 11:00:00 26.7 7 Sudeste 16 Sudeste 0 -- -- 54
2020-07-08 10:00:00 24.5 0 Calma 11 Oeste 0 -- -- 67
2020-07-08 09:00:00 22 6 Oeste 12 Oeste 0 -- -- 77
2020-07-08 08:00:00 20.3 6 Oeste 9 Noroeste 0 -- -- 87
2020-07-08 07:00:00 19.4 0 Calma 4 Sudeste 0 -- -- 87
2020-07-08 06:00:00 20.5 0 Calma -- -- 0 -- -- 90
2020-07-08 05:00:00 21.2 0 Calma 9 Este 0 -- -- 91
2020-07-08 04:00:00 22.6 3 Este 12 Este 0 -- -- 87
2020-07-08 03:00:00 23 8 Sudeste 17 Sudeste 0 -- -- 83
2020-07-08 02:00:00 23.6 11 Sudeste 22 Sudeste 0 -- -- 76
2020-07-08 01:00:00 24.8 11 Sudeste 21 Sudeste 0 -- -- 56
2020-07-08 00:00:00 25.9 14 Sudeste 23 Sudeste 0 -- -- 51
2020-07-07 23:00:00 26.7 12 Sudeste 24 Sudeste 0 -- -- 53
2020-07-07 22:00:00 28 14 Sudeste 30 Sudeste 0 -- -- 49
2020-07-07 21:00:00 30.3 14 Sudeste 31 Sudeste 0 -- -- 44
2020-07-07 20:00:00 32 15 Sudeste 35 Sudeste 0 -- -- 41
2020-07-07 19:00:00 33.4 14 Sudeste 35 Nordeste 0 -- -- 40
2020-07-07 18:00:00 34.9 10 Sudeste 26 Sudeste 0 -- -- 38
2020-07-07 17:00:00 36.4 7 Sudeste 12 Sudeste 0 -- -- 31
2020-07-07 16:00:00 36.8 5 Sudeste 18 Sudeste 0 -- -- 26
2020-07-07 15:00:00 36 8 Este 30 Sudeste 0 -- -- 26
2020-07-07 14:00:00 34.5 9 Sudeste 21 Sudeste 0 -- -- 28
2020-07-07 13:00:00 33.2 8 Este 23 Este 0 -- -- 30
2020-07-07 12:00:00 30.7 4 Este 11 Sudeste 0 -- -- 36
2020-07-07 11:00:00 26.8 0 Calma 10 Noroeste 0 -- -- 44
2020-07-07 10:00:00 23.8 5 Oeste 12 Noroeste 0 -- -- 56
2020-07-07 09:00:00 20.7 5 Oeste 10 Oeste 0 -- -- 63
2020-07-07 08:00:00 19 4 Oeste 7 Oeste 0 -- -- 66
2020-07-07 07:00:00 18.3 3 Oeste 5 Oeste 0 -- -- 66
2020-07-07 06:00:00 19.2 0 Calma 4 Sudeste 0 -- -- 57
2020-07-07 05:00:00 20.1 0 Calma 6 Este 0 -- -- 57
2020-07-07 04:00:00 20.6 0 Calma 4 Este 0 -- -- 59
2020-07-07 03:00:00 21.8 0 Calma 12 Sudeste 0 -- -- 55
2020-07-07 02:00:00 23.6 5 Este 13 Sudeste 0 -- -- 50
2020-07-07 01:00:00 24.3 9 Sudeste 19 Sudeste 0 -- -- 50
2020-07-07 00:00:00 24.9 12 Sudeste 21 Sudeste 0 -- -- 50
2020-07-06 23:00:00 26.1 14 Sudeste 24 Sudeste 0 -- -- 44
2020-07-06 22:00:00 27.5 16 Sudeste 28 Sudeste 0 -- -- 39
2020-07-06 21:00:00 29.1 12 Sudeste 33 Sudeste 0 -- -- 36
2020-07-06 20:00:00 30.8 14 Sudeste 36 Sudeste 0 -- -- 34
2020-07-06 19:00:00 33.1 13 Este 36 Sudeste 0 -- -- 30
2020-07-06 18:00:00 33.6 13 Sudeste 31 Sudeste 0 -- -- 30
2020-07-06 17:00:00 35.4 10 Sudeste 31 Sudeste 0 -- -- 30
2020-07-06 16:00:00 35 11 Sudeste 29 Sudeste 0 -- -- 31
2020-07-06 15:00:00 35.2 9 Sudeste 30 Sudeste 0 -- -- 31
2020-07-06 14:00:00 34.5 9 Este 24 Sudeste 0 -- -- 34
2020-07-06 13:00:00 32.9 8 Este 20 Sudeste 0 -- -- 37
2020-07-06 12:00:00 30.9 4 Sudeste 10 Sudoeste 0 -- -- 36
2020-07-06 11:00:00 26.7 6 Oeste 16 Noroeste 0 -- -- 49
2020-07-06 10:00:00 23.8 12 Oeste 18 Noroeste 0 -- -- 62
2020-07-06 09:00:00 21.2 7 Oeste 12 Oeste 0 -- -- 68
2020-07-06 08:00:00 19.2 6 Oeste 13 Noroeste 0 -- -- 73
2020-07-06 07:00:00 19.2 6 Oeste 10 Oeste 0 -- -- 77
2020-07-06 06:00:00 19.2 5 Oeste 8 Oeste 0 -- -- 73
2020-07-06 05:00:00 19.4 0 Calma 7 Este 0 -- -- 70
2020-07-06 04:00:00 19.7 0 Calma 5 Este 0 -- -- 72
2020-07-06 03:00:00 20.4 0 Calma 3 Sudeste 0 -- -- 80
2020-07-06 02:00:00 21.3 0 Calma 6 Este 0 -- -- 76
2020-07-06 01:00:00 23 6 Sudeste 19 Sudeste 0 -- -- 70
2020-07-06 00:00:00 23.8 13 Sudeste 21 Sudeste 0 -- -- 65
2020-07-05 23:00:00 24.6 13 Sudeste 23 Sudeste 0 -- -- 60
2020-07-05 22:00:00 25.6 11 Sudeste 29 Sudeste 0 -- -- 54
2020-07-05 21:00:00 27.3 11 Sudeste 29 Este 0 -- -- 49
2020-07-05 20:00:00 29.2 14 Sudeste 35 Sudeste 0 -- -- 44
2020-07-05 19:00:00 30.8 14 Este 33 Sudeste 0 -- -- 41
2020-07-05 18:00:00 32.3 16 Sudeste 36 Sudeste 0 -- -- 37
2020-07-05 17:00:00 33.2 18 Sudeste 39 Sudeste 0 -- -- 35
2020-07-05 16:00:00 33.4 14 Sudeste 32 Sudeste 0 -- -- 35
2020-07-05 15:00:00 32.9 14 Sudeste 29 Sudeste 0 -- -- 35
2020-07-05 14:00:00 31.8 13 Sudeste 27 Sudeste 0 -- -- 39
2020-07-05 13:00:00 30.5 10 Sudeste 24 Sudeste 0 -- -- 41
2020-07-05 12:00:00 29 7 Este 15 Este 0 -- -- 44
2020-07-05 11:00:00 25.8 3 Oeste 12 Oeste 0 -- -- 56
2020-07-05 10:00:00 22.9 8 Oeste 13 Oeste 0 -- -- 72
2020-07-05 09:00:00 20.7 6 Oeste 9 Noroeste 0 -- -- 81
2020-07-05 08:00:00 18.8 0 Calma -- -- 0 -- -- 87
2020-07-05 07:00:00 17.6 0 Calma 9 Oeste 0 -- -- 86
2020-07-05 06:00:00 18.9 6 Oeste 9 Noroeste 0 -- -- 86
2020-07-05 05:00:00 19.9 0 Calma 6 Este 0 -- -- 78
2020-07-05 04:00:00 19.9 0 Calma 6 Este 0 -- -- 80
2020-07-05 03:00:00 20.4 0 Calma -- -- 0 -- -- 82
2020-07-05 02:00:00 21.6 0 Calma 15 Sudeste 0 -- -- 78
2020-07-05 01:00:00 22.6 9 Sudeste 19 Sudeste 0 -- -- 73
2020-07-05 00:00:00 23.1 12 Sudeste 20 Sudeste 0 -- -- 70
2020-07-04 23:00:00 23.8 13 Sudeste 26 Sudeste 0 -- -- 67
2020-07-04 22:00:00 24.7 11 Sudeste 28 Sudeste 0 -- -- 64
2020-07-04 21:00:00 26.7 14 Sudeste 33 Sudeste 0 -- -- 55
2020-07-04 20:00:00 29.2 15 Sudeste 38 Sudeste 0 -- -- 49
2020-07-04 19:00:00 30.5 17 Sudeste 33 Sudeste 0 -- -- 49
2020-07-04 18:00:00 32 13 Sudeste 36 Sudeste 0 -- -- 46
2020-07-04 17:00:00 31.8 18 Sudeste 35 Sudeste 0 -- -- 45
2020-07-04 16:00:00 32.5 14 Sudeste 30 Sudeste 0 -- -- 44
2020-07-04 15:00:00 31.4 13 Sudeste 27 Sudeste 0 -- -- 44
2020-07-04 14:00:00 30.9 11 Sudeste 28 Sudeste 0 -- -- 47
2020-07-04 13:00:00 29.3 9 Este 21 Sudeste 0 -- -- 52
2020-07-04 12:00:00 27.2 9 Sudeste 19 Sudeste 0 -- -- 60
2020-07-04 11:00:00 25.8 2 Nordeste 9 Sudoeste 0 -- -- 67
2020-07-04 10:00:00 25.2 3 Este 9 Sudeste 0 -- -- 68
2020-07-04 09:00:00 23.6 4 Nordeste 9 Nordeste 0 -- -- 77
2020-07-04 08:00:00 20.9 0 Calma -- -- 0 -- -- 86
2020-07-04 07:00:00 20.9 0 Calma 6 Este 0 -- -- 87
2020-07-04 06:00:00 21.3 0 Calma 5 Este 0 -- -- 86
2020-07-04 05:00:00 22.1 3 Este 18 Sudeste 0 -- -- 87
2020-07-04 04:00:00 22.2 9 Sudeste 17 Sudeste 0 -- -- 88
2020-07-04 03:00:00 22.1 5 Sudeste 17 Sudeste 0 -- -- 88
2020-07-04 02:00:00 22.5 8 Sudeste 22 Sudeste 0 -- -- 87
2020-07-04 01:00:00 22.8 9 Sudeste 22 Sudeste 0 -- -- 86
2020-07-04 00:00:00 23.1 13 Sudeste 25 Sudeste 0 -- -- 83
2020-07-03 23:00:00 23.7 12 Sudeste 27 Sudeste 0 -- -- 81
2020-07-03 22:00:00 24.6 12 Sudeste 33 Sudeste 0 -- -- 76
2020-07-03 21:00:00 25.6 15 Sudeste 34 Sudeste 0 -- -- 70
2020-07-03 20:00:00 26.9 18 Sudeste 40 Sudeste 0 -- -- 61
2020-07-03 19:00:00 28.5 19 Sudeste 43 Sudeste 0 -- -- 55
2020-07-03 18:00:00 30.2 19 Sudeste 41 Sudeste 0 -- -- 50
2020-07-03 17:00:00 30.8 21 Sudeste 45 Sudeste 0 -- -- 47
2020-07-03 16:00:00 32.6 17 Sudeste 36 Sudeste 0 -- -- 44
2020-07-03 15:00:00 32.1 13 Sudeste 30 Sudeste 0 -- -- 41
2020-07-03 14:00:00 31.9 12 Sudeste 27 Sudeste 0 -- -- 44
2020-07-03 13:00:00 30.3 15 Sudeste 24 Sudeste 0 -- -- 47
2020-07-03 12:00:00 29.1 8 Sudeste 18 Sudeste 0 -- -- 51
2020-07-03 11:00:00 27.4 6 Sudeste 13 Sudeste 0 -- -- 54
2020-07-03 10:00:00 24.6 4 Oeste 14 Oeste 0 -- -- 68
2020-07-03 09:00:00 22.1 5 Noroeste 13 Oeste 0 -- -- 83
2020-07-03 08:00:00 20.2 7 Oeste 11 Noroeste 0 -- -- 92
2020-07-03 07:00:00 20 4 Oeste 8 Oeste 0 -- -- 92
2020-07-03 06:00:00 20.3 0 Calma 6 Norte 0 -- -- 90
2020-07-03 05:00:00 20.5 0 Calma 5 Nordeste 0 -- -- 90
2020-07-03 04:00:00 21.3 0 Calma -- -- 0 -- -- 91
2020-07-03 03:00:00 21.7 0 Calma -- -- 0 -- -- 91
2020-07-03 02:00:00 22.8 0 Calma 5 Este 0 -- -- 87
2020-07-03 01:00:00 23.9 0 Calma 7 Este 0 -- -- 82
2020-07-03 00:00:00 25 3 Sudeste 18 Sudeste 0 -- -- 81
2020-07-02 23:00:00 25.6 7 Sudeste 21 Sudeste 0 -- -- 78
2020-07-02 22:00:00 26.8 13 Sudeste 28 Sudeste 0 -- -- 75
2020-07-02 21:00:00 28.7 16 Sudeste 31 Sudeste 0 -- -- 66
2020-07-02 20:00:00 30.2 13 Sudeste 33 Este 0 -- -- 60
2020-07-02 19:00:00 31.9 18 Sudeste 36 Sudeste 0 -- -- 54
2020-07-02 18:00:00 34.4 13 Sudeste 30 Sudeste 0 -- -- 44
2020-07-02 17:00:00 36.3 10 Sudeste 15 Sudeste 0 -- -- 35
2020-07-02 16:00:00 37.8 3 Sudeste 5 Sudeste 0 -- -- 30
2020-07-02 15:00:00 38.1 3 Sudeste 5 Sur 0 -- -- 29
2020-07-02 14:00:00 37.5 3 Oeste 6 Oeste 0 -- -- 28
2020-07-02 13:00:00 35.8 3 Oeste 6 Oeste 0 -- -- 30
2020-07-02 12:00:00 33.8 3 Oeste 10 Noroeste 0 -- -- 34
2020-07-02 11:00:00 30.8 6 Oeste 13 Oeste 0 -- -- 36
2020-07-02 10:00:00 26.5 6 Oeste 14 Oeste 0 -- -- 40
2020-07-02 09:00:00 22.6 7 Oeste 15 Oeste 0 -- -- 46
2020-07-02 08:00:00 21.3 11 Oeste 15 Oeste 0 -- -- 46
2020-07-02 07:00:00 20.4 10 Oeste 12 Oeste 0 -- -- 49
2020-07-02 06:00:00 22 9 Oeste 13 Oeste 0 -- -- 45
2020-07-02 05:00:00 21.5 7 Oeste 10 Oeste 0 -- -- 51
2020-07-02 04:00:00 22.1 6 Oeste 13 Oeste 0 -- -- 51
2020-07-02 03:00:00 22.7 9 Oeste 12 Oeste 0 -- -- 51
2020-07-02 02:00:00 22.1 0 Calma 10 Oeste 0 -- -- 51
2020-07-02 01:00:00 24.8 0 Calma 5 Este 0 -- -- 47
2020-07-02 00:00:00 26.8 0 Calma 5 Sudeste 0 -- -- 39
2020-07-01 23:00:00 29.4 5 Sur 12 Sudeste 0 -- -- 34
2020-07-01 22:00:00 33.1 7 Sudeste 16 Sudeste 0 -- -- 30
2020-07-01 21:00:00 35.2 5 Sudeste 13 Este 0 -- -- 29
2020-07-01 20:00:00 37 5 Sudeste 8 Sudeste 0 -- -- 29
2020-07-01 19:00:00 37.7 3 Sudeste 5 Sudeste 0 -- -- 29
2020-07-01 18:00:00 38.8 0 Calma 4 Sudeste 0 -- -- 30
2020-07-01 17:00:00 39.7 0 Calma 4 Nordeste 0 -- -- 25
2020-07-01 16:00:00 39.2 2 Sudeste 4 Sudeste 0 -- -- 25
2020-07-01 15:00:00 38.7 2 Este 5 Norte 0 -- -- 25
2020-07-01 14:00:00 37.5 2 Oeste 5 Norte 0 -- -- 26
2020-07-01 13:00:00 35.2 2 Noroeste 7 Oeste 0 -- -- 33
2020-07-01 12:00:00 32.5 0 Calma 7 Sudeste 0 -- -- 39
2020-07-01 11:00:00 28.6 0 Calma 6 Noroeste 0 -- -- 51
2020-07-01 10:00:00 23.8 2 Noroeste 8 Oeste 0 -- -- 65
2020-07-01 09:00:00 20.9 0 Calma 4 Noroeste 0 -- -- 73
2020-07-01 08:00:00 18.3 0 Calma 6 Oeste 0 -- -- 84
2020-07-01 07:00:00 17.9 2 Oeste 6 Oeste 0 -- -- 84
2020-07-01 06:00:00 18.6 3 Oeste 8 Noroeste 0 -- -- 83
2020-07-01 05:00:00 19.6 4 Oeste 10 Oeste 0 -- -- 82
2020-07-01 04:00:00 19.6 3 Oeste 5 Oeste 0 -- -- 82
2020-07-01 03:00:00 20.4 0 Calma 4 Este 0 -- -- 81
2020-07-01 02:00:00 21.5 0 Calma 10 Sudeste 0 -- -- 76
2020-07-01 01:00:00 22.7 5 Sudeste 13 Sudeste 0 -- -- 73
2020-07-01 00:00:00 23.8 4 Este 15 Sur 0 -- -- 65
2020-06-30 23:00:00 25.5 5 Este 23 Sudeste 0 -- -- 59
2020-06-30 22:00:00 27.2 16 Sudeste 30 Sudeste 0 -- -- 43
2020-06-30 21:00:00 29 18 Sudeste 30 Sudeste 0 -- -- 40
2020-06-30 20:00:00 31.2 17 Sudeste 30 Sudeste 0 -- -- 36
2020-06-30 19:00:00 32.2 20 Sudeste 33 Sudeste 0 -- -- 34
2020-06-30 18:00:00 33.3 19 Sudeste 35 Sudeste 0 -- -- 34
2020-06-30 17:00:00 32.7 18 Sudeste 36 Sudeste 0 -- -- 35
2020-06-30 16:00:00 33.7 10 Este 32 Sudeste 0 -- -- 35
2020-06-30 15:00:00 34 13 Sudeste 31 Sudeste 0 -- -- 35
2020-06-30 14:00:00 32.8 11 Sudeste 32 Sudeste 0 -- -- 37
2020-06-30 13:00:00 31.2 13 Sudeste 27 Sudeste 0 -- -- 42
2020-06-30 12:00:00 28.7 6 Sudeste 16 Sudeste 0 -- -- 54
2020-06-30 11:00:00 26 4 Sudeste 14 Sudeste 0 -- -- 67
2020-06-30 10:00:00 23.4 0 Calma 6 Norte 0 -- -- 76
2020-06-30 09:00:00 21.6 0 Calma 4 Noroeste 0 -- -- 82
2020-06-30 08:00:00 18.9 0 Calma 5 Sudeste 0 -- -- 82
2020-06-30 07:00:00 17.1 0 Calma 5 Este 0 -- -- 78
2020-06-30 06:00:00 17.5 0 Calma -- -- 0 -- -- 75
2020-06-30 05:00:00 18.8 0 Calma 5 Este 0 -- -- 66
2020-06-30 04:00:00 19.4 0 Calma 6 Este 0 -- -- 73
2020-06-30 03:00:00 20 0 Calma 5 Este 0 -- -- 73
2020-06-30 02:00:00 22 0 Calma 8 Este 0 -- -- 65
2020-06-30 01:00:00 24.4 6 Sudeste 21 Sudeste 0 -- -- 52
2020-06-30 00:00:00 25.2 14 Sudeste 24 Sudeste 0 -- -- 53
2020-06-29 23:00:00 26.3 17 Sudeste 30 Sudeste 0 -- -- 47
2020-06-29 22:00:00 28 17 Sudeste 29 Sudeste 0 -- -- 39
2020-06-29 21:00:00 29.7 16 Sudeste 31 Sudeste 0 -- -- 40
2020-06-29 20:00:00 31.1 15 Sudeste 36 Sudeste 0 -- -- 40
2020-06-29 19:00:00 32.1 16 Sudeste 37 Sudeste 0 -- -- 41
2020-06-29 18:00:00 32.7 19 Sudeste 44 Sudeste 0 -- -- 42
2020-06-29 17:00:00 33.1 18 Sudeste 36 Sudeste 0 -- -- 44
2020-06-29 16:00:00 33.5 14 Sudeste 35 Sudeste 0 -- -- 44
2020-06-29 15:00:00 33.2 16 Sudeste 36 Sudeste 0 -- -- 44
2020-06-29 14:00:00 32.5 15 Sudeste 40 Sudeste 0 -- -- 42
2020-06-29 13:00:00 31.6 13 Sudeste 30 Sudeste 0 -- -- 42
2020-06-29 12:00:00 30.9 8 Este 23 Este 0 -- -- 42
2020-06-29 11:00:00 27.2 2 Noroeste -- -- 0 -- -- 51
2020-06-29 10:00:00 23.7 9 Oeste 17 Oeste 0 -- -- 62
2020-06-29 09:00:00 20.4 9 Oeste 16 Noroeste 0 -- -- 72
2020-06-29 08:00:00 18.6 8 Oeste 12 Oeste 0 -- -- 80
2020-06-29 07:00:00 18.4 5 Oeste 9 Oeste 0 -- -- 80
2020-06-29 06:00:00 18.4 0 Calma 7 Noroeste 0 -- -- 77
2020-06-29 05:00:00 19 0 Calma 5 Nordeste 0 -- -- 72
2020-06-29 04:00:00 19.8 3 Sudeste 6 Sudeste 0 -- -- 73
2020-06-29 03:00:00 20.7 0 Calma 4 Este 0 -- -- 75
2020-06-29 02:00:00 21.9 0 Calma 10 Sudeste 0 -- -- 70
2020-06-29 01:00:00 23.4 7 Sudeste 19 Sudeste 0 -- -- 69
2020-06-29 00:00:00 24.3 10 Sudeste 26 Sudeste 0 -- -- 62
2020-06-28 23:00:00 25.5 12 Sudeste 21 Sudeste 0 -- -- 56
2020-06-28 22:00:00 26.9 15 Sudeste 29 Sudeste 0 -- -- 50
2020-06-28 21:00:00 28.8 13 Sudeste 31 Sudeste 0 -- -- 46
2020-06-28 20:00:00 30.2 16 Sudeste 36 Sudeste 0 -- -- 45
2020-06-28 19:00:00 32 16 Sudeste 37 Sudeste 0 -- -- 44
2020-06-28 18:00:00 33.3 17 Sudeste 36 Sudeste 0 -- -- 41
2020-06-28 17:00:00 33 17 Sudeste 36 Sudeste 0 -- -- 41
2020-06-28 16:00:00 33.8 15 Sudeste 34 Sudeste 0 -- -- 37
2020-06-28 15:00:00 33.7 12 Sudeste 31 Sudeste 0 -- -- 35
2020-06-28 14:00:00 32.6 12 Este 28 Este 0 -- -- 35
2020-06-28 13:00:00 31.2 12 Sudeste 29 Sudeste 0 -- -- 39
2020-06-28 12:00:00 30 9 Sudeste 22 Sudeste 0 -- -- 45
2020-06-28 11:00:00 27.5 5 Este 13 Este 0 -- -- 52
2020-06-28 10:00:00 24.4 3 Sudeste 8 Sudeste 0 -- -- 60
2020-06-28 09:00:00 21.9 0 Calma 6 Noroeste 0 -- -- 72
2020-06-28 08:00:00 19.1 5 Oeste 12 Oeste 0 -- -- 80
2020-06-28 07:00:00 18 4 Oeste 8 Oeste 0 -- -- 83
2020-06-28 06:00:00 19 0 Calma 8 Oeste 0 -- -- 82
2020-06-28 05:00:00 19.1 4 Oeste 6 Oeste 0 -- -- 82
2020-06-28 04:00:00 19.2 0 Calma 3 Nordeste 0 -- -- 80
2020-06-28 03:00:00 20.2 0 Calma 0 Calma 0 -- -- 78
2020-06-28 02:00:00 21.2 0 Calma 4 Este 0 -- -- 76
2020-06-28 01:00:00 22.7 0 Calma 12 Sudeste 0 -- -- 70
2020-06-28 00:00:00 24.1 6 Sudeste 16 Sudeste 0 -- -- 65
2020-06-27 23:00:00 25.1 12 Sudeste 22 Sudeste 0 -- -- 59
2020-06-27 22:00:00 26 12 Sudeste 27 Sudeste 0 -- -- 55
2020-06-27 21:00:00 28.3 18 Sudeste 30 Sudeste 0 -- -- 50
2020-06-27 20:00:00 30.3 14 Sudeste 37 Sudeste 0 -- -- 46
2020-06-27 19:00:00 31 15 Sudeste 33 Sudeste 0 -- -- 46
2020-06-27 18:00:00 32.8 16 Sudeste 32 Sudeste 0 -- -- 41
2020-06-27 17:00:00 -- -- -- -- -- 0 -- -- --
2020-06-27 16:00:00 34.8 4 Nordeste 10 Norte 0 -- -- 26
2020-06-27 15:00:00 35.4 5 Noroeste 15 Norte 0 -- -- 26
2020-06-27 14:00:00 33.9 5 Noroeste 13 Oeste 0 -- -- 28
2020-06-27 13:00:00 33 2 Norte 16 Oeste 0 -- -- 30
2020-06-27 12:00:00 30.2 8 Oeste 16 Oeste 0 -- -- 33
2020-06-27 11:00:00 27.5 7 Oeste 17 Oeste 0 -- -- 41
2020-06-27 10:00:00 24.8 8 Oeste 14 Oeste 0 -- -- 55
2020-06-27 09:00:00 21.6 7 Oeste 12 Oeste 0 -- -- 73
2020-06-27 08:00:00 20.2 8 Oeste 11 Oeste 0 -- -- 82
2020-06-27 07:00:00 19.7 6 Oeste 15 Noroeste 0 -- -- 88
2020-06-27 06:00:00 19.7 10 Oeste 15 Oeste 0 -- -- 87
2020-06-27 05:00:00 20 8 Oeste 11 Oeste 0 -- -- 89
2020-06-27 04:00:00 19.9 0 Calma -- -- 0 -- -- 86
2020-06-27 03:00:00 21 0 Calma -- -- 0 -- -- 84
2020-06-27 02:00:00 21.9 0 Calma 9 Sudeste 0 -- -- 82
2020-06-27 01:00:00 22.8 5 Sudeste 14 Sudeste 0 -- -- 81
2020-06-27 00:00:00 23.1 11 Sudeste 26 Sudeste 0 -- -- 80
2020-06-26 23:00:00 24.2 13 Sudeste 25 Sudeste 0 -- -- 76
2020-06-26 22:00:00 25.8 11 Sudeste 25 Sudeste 0 -- -- 65
2020-06-26 21:00:00 27.3 12 Sudeste 31 Sudeste 0 -- -- 54
2020-06-26 20:00:00 28.3 12 Sudeste 28 Sudeste 0 -- -- 47
2020-06-26 19:00:00 30.7 12 Este 31 Sudeste 0 -- -- 42
2020-06-26 18:00:00 31.4 13 Sudeste 34 Sudeste 0 -- -- 41
2020-06-26 17:00:00 32.2 18 Sudeste 36 Sudeste 0 -- -- 38
2020-06-26 16:00:00 33 18 Sudeste 36 Sudeste 0 -- -- 37
2020-06-26 15:00:00 32.5 11 Sudeste 27 Sudeste 0 -- -- 35
2020-06-26 14:00:00 32.1 8 Sudeste 18 Sudeste 0 -- -- 40
2020-06-26 13:00:00 30.7 0 Calma 14 Este 0 -- -- 45
2020-06-26 12:00:00 28.1 3 Nordeste 13 Sudeste 0 -- -- 49
2020-06-26 11:00:00 26.1 6 Sudeste 14 Sudeste 0 -- -- 55
2020-06-26 10:00:00 23.3 4 Norte 8 Norte 0 -- -- 62
2020-06-26 09:00:00 20.6 0 Calma 10 Oeste 0 -- -- 68
2020-06-26 08:00:00 18.4 5 Oeste 11 Oeste 0 -- -- 75
2020-06-26 07:00:00 17.6 3 Oeste 10 Oeste 0 -- -- 78
2020-06-26 06:00:00 18.2 6 Oeste 10 Oeste 0 -- -- 77
2020-06-26 05:00:00 18.8 3 Oeste 8 Oeste 0 -- -- 76
2020-06-26 04:00:00 20 5 Oeste 9 Oeste 0 -- -- 73
2020-06-26 03:00:00 20.5 7 Oeste 8 Oeste 0 -- -- 73
2020-06-26 02:00:00 19.9 0 Calma -- -- 0 -- -- 71
2020-06-26 01:00:00 22.9 2 Sudeste 16 Sudeste 0 -- -- 65
2020-06-26 00:00:00 23.4 9 Sudeste 24 Sudeste 0 -- -- 62
2020-06-25 23:00:00 25.1 14 Sudeste 24 Sudeste 0 -- -- 50
2020-06-25 22:00:00 26.6 12 Sudeste 24 Sudeste 0 -- -- 40
2020-06-25 21:00:00 28.6 16 Sudeste 31 Sudeste 0 -- -- 34
2020-06-25 20:00:00 30.4 14 Sudeste 36 Sudeste 0 -- -- 31
2020-06-25 19:00:00 31.7 12 Sudeste 33 Sudeste 0 -- -- 30
2020-06-25 18:00:00 32.4 21 Sudeste 34 Sudeste 0 -- -- 30
2020-06-25 17:00:00 33.2 13 Sudeste 34 Sudeste 0 -- -- 29
2020-06-25 16:00:00 33.2 14 Sudeste 35 Sudeste 0 -- -- 31
2020-06-25 15:00:00 32.5 19 Sudeste 35 Sudeste 0 -- -- 34
2020-06-25 14:00:00 32.5 20 Sudeste 33 Sudeste 0 -- -- 35
2020-06-25 13:00:00 31 7 Sudeste 23 Sudeste 0 -- -- 39
2020-06-25 12:00:00 28.7 2 Norte 15 Oeste 0 -- -- 45
2020-06-25 11:00:00 25.1 8 Oeste 15 Oeste 0 -- -- 57
2020-06-25 10:00:00 22.5 9 Oeste 16 Oeste 0 -- -- 63
2020-06-25 09:00:00 19.3 6 Oeste 14 Oeste 0 -- -- 70
2020-06-25 08:00:00 17.1 10 Oeste 15 Oeste 0 -- -- 77
2020-06-25 07:00:00 17.4 10 Oeste 14 Oeste 0 -- -- 75
2020-06-25 06:00:00 17.1 8 Oeste 10 Oeste 0 -- -- 80
2020-06-25 05:00:00 18.4 0 Calma 10 Oeste 0 -- -- 78
2020-06-25 04:00:00 18.9 6 Oeste 10 Oeste 0 -- -- 77
2020-06-25 03:00:00 18.5 0 Calma 4 Norte 0 -- -- 80
2020-06-25 02:00:00 20 0 Calma 4 Nordeste 0 -- -- 72
2020-06-25 01:00:00 21.6 0 Calma 19 Sudeste 0 -- -- 67
2020-06-25 00:00:00 22.9 10 Sudeste 25 Sudeste 0 -- -- 60
2020-06-24 23:00:00 23.9 12 Sudeste 25 Sudeste 0 -- -- 54
2020-06-24 22:00:00 25.1 14 Sudeste 30 Sudeste 0 -- -- 52
2020-06-24 21:00:00 26.7 14 Sudeste 26 Sudeste 0 -- -- 50
2020-06-24 20:00:00 28.6 15 Sudeste 32 Sudeste 0 -- -- 42
2020-06-24 19:00:00 30.7 16 Sudeste 30 Sudeste 0 -- -- 40
2020-06-24 18:00:00 32 12 Sudeste 26 Sur 0 -- -- 36
2020-06-24 17:00:00 32.3 6 Sudeste 17 Sudeste 0 -- -- 36
2020-06-24 16:00:00 29.9 3 Nordeste 14 Sudeste 0 -- -- 41
2020-06-24 15:00:00 28 0 Calma 10 Sudeste 0 -- -- 47
2020-06-24 14:00:00 24.3 8 Oeste 21 Este 0 -- -- 56
2020-06-24 13:00:00 23.4 8 Sudeste 22 Sudeste 0 -- -- 57
2020-06-24 12:00:00 23.4 8 Sudeste 21 Sudeste 0 -- -- 56
2020-06-24 11:00:00 24.3 6 Sudeste 14 Sudeste 0 -- -- 58
2020-06-24 10:00:00 23 5 Oeste 13 Oeste 0 -- -- 66
2020-06-24 09:00:00 20 6 Oeste 12 Oeste 0 -- -- 77
2020-06-24 08:00:00 18.5 3 Oeste 11 Oeste 0 -- -- 83
2020-06-24 07:00:00 17.2 7 Oeste 22 Noroeste 0 -- -- 88
2020-06-24 06:00:00 17.6 0 Calma 8 Norte 0 -- -- 84
2020-06-24 05:00:00 17.7 0 Calma 6 Oeste 0 -- -- 82
2020-06-24 04:00:00 19.2 0 Calma 8 Nordeste 0 -- -- 80
2020-06-24 03:00:00 19.4 0 Calma 12 Sudeste 0 -- -- 80
2020-06-24 02:00:00 20 3 Este 9 Sudeste 0 -- -- 76
2020-06-24 01:00:00 21.4 3 Sudeste 17 Sudeste 0 -- -- 68
2020-06-24 00:00:00 21.9 11 Sudeste 24 Sudeste 0 -- -- 70
2020-06-23 23:00:00 22.7 12 Sudeste 23 Sudeste 0 -- -- 66
2020-06-23 22:00:00 23.9 14 Sudeste 31 Sudeste 0 -- -- 59
2020-06-23 21:00:00 25.4 21 Sudeste 36 Sudeste 0 -- -- 52
2020-06-23 20:00:00 26.9 23 Sudeste 33 Sudeste 0 -- -- 46
2020-06-23 19:00:00 28.2 19 Sudeste 34 Sudeste 0 -- -- 43
2020-06-23 18:00:00 29.8 18 Sudeste 34 Sudeste 0 -- -- 40
2020-06-23 17:00:00 30.4 17 Sudeste 34 Sudeste 0 -- -- 39
2020-06-23 16:00:00 31.1 13 Este 32 Este 0 -- -- 37
2020-06-23 15:00:00 30.2 19 Sudeste 34 Sudeste 0 -- -- 39
2020-06-23 14:00:00 30.9 9 Este 28 Sudeste 0 -- -- 39
2020-06-23 13:00:00 29.6 11 Sudeste 24 Sudeste 0.1 -- -- 41
2020-06-23 12:00:00 28.1 8 Este 22 Sudeste 0 -- -- 45
2020-06-23 11:00:00 25.3 4 Este 12 Sudeste 0 -- -- 55
2020-06-23 10:00:00 21.7 6 Oeste 12 Oeste 0 -- -- 72
2020-06-23 09:00:00 19.3 6 Oeste 12 Oeste 0 -- -- 78
2020-06-23 08:00:00 17.5 4 Oeste 9 Noroeste 0 -- -- 84
2020-06-23 07:00:00 16.8 0 Calma 8 Oeste 0 -- -- 83
2020-06-23 06:00:00 17.9 0 Calma 8 Oeste 0 -- -- 82
2020-06-23 05:00:00 18.1 5 Oeste 8 Oeste 0 -- -- 81
2020-06-23 04:00:00 18.2 0 Calma 6 Nordeste 0 -- -- 77
2020-06-23 03:00:00 18.7 0 Calma 5 Este 0 -- -- 80
2020-06-23 02:00:00 19.5 0 Calma 13 Sudeste 0 -- -- 78
2020-06-23 01:00:00 21.1 9 Sudeste 20 Sudeste 0 -- -- 73
2020-06-23 00:00:00 21.6 12 Sudeste 23 Sudeste 0 -- -- 70
2020-06-22 23:00:00 22.3 13 Sudeste 26 Sudeste 0 -- -- 65
2020-06-22 22:00:00 23.5 10 Sudeste 28 Sudeste 0 -- -- 57
2020-06-22 21:00:00 25.3 13 Sudeste 33 Sudeste 0 -- -- 49
2020-06-22 20:00:00 27 15 Sudeste 35 Sudeste 0 -- -- 42
2020-06-22 19:00:00 28.2 17 Sudeste 37 Sudeste 0 -- -- 40
2020-06-22 18:00:00 30 15 Sudeste 38 Sudeste 0 -- -- 36
2020-06-22 17:00:00 30.5 17 Sudeste 37 Este 0 -- -- 36
2020-06-22 16:00:00 30.9 18 Este 40 Sudeste 0 -- -- 36
2020-06-22 15:00:00 30.9 16 Sudeste 36 Sudeste 0 -- -- 39
2020-06-22 14:00:00 30.2 17 Sudeste 33 Sudeste 0 -- -- 41
2020-06-22 13:00:00 29.6 14 Sudeste 30 Sudeste 0 -- -- 42
2020-06-22 12:00:00 28.2 11 Sudeste 27 Sudeste 0 -- -- 46
2020-06-22 11:00:00 26.8 5 Este 15 Sudeste 0 -- -- 51
2020-06-22 10:00:00 23.5 4 Sudoeste 9 Sur 0 -- -- 62
2020-06-22 09:00:00 20.9 0 Calma 10 Oeste 0 -- -- 73
2020-06-22 08:00:00 18.1 4 Oeste 10 Oeste 0 -- -- 83
2020-06-22 07:00:00 17.7 2 Oeste 7 Oeste 0 -- -- 84
2020-06-22 06:00:00 17 0 Calma 4 Este 0 -- -- 86
2020-06-22 05:00:00 18.1 0 Calma 4 Sudeste 0 -- -- 82
2020-06-22 04:00:00 19.2 0 Calma 5 Nordeste 0 -- -- 80
2020-06-22 03:00:00 19.8 0 Calma 7 Este 0 -- -- 80
2020-06-22 02:00:00 21.3 3 Este 18 Sudeste 0 -- -- 73
2020-06-22 01:00:00 21.8 0 Calma 6 Este 0 -- -- 68
2020-06-22 00:00:00 22.9 0 Calma 5 Este 0 -- -- 61
2020-06-21 23:00:00 24.9 0 Calma 15 Sudeste 0 -- -- 49
2020-06-21 22:00:00 26 13 Sudeste 26 Sudeste 0 -- -- 47
2020-06-21 21:00:00 28 17 Sudeste 32 Sudeste 0 -- -- 44
2020-06-21 20:00:00 29.6 19 Sudeste 35 Sudeste 0 -- -- 43
2020-06-21 19:00:00 30.9 15 Sudeste 35 Sudeste 0 -- -- 41
2020-06-21 18:00:00 31.7 19 Sudeste 41 Sudeste 0 -- -- 40
2020-06-21 17:00:00 33.1 15 Sudeste 36 Sudeste 0 -- -- 39
2020-06-21 16:00:00 34.1 13 Sudeste 30 Este 0 -- -- 36
2020-06-21 15:00:00 34.5 11 Sudeste 30 Sudeste 0 -- -- 34
2020-06-21 14:00:00 34.2 11 Este 27 Este 0 -- -- 34
2020-06-21 13:00:00 33.6 8 Este 19 Este 0 -- -- 33
2020-06-21 12:00:00 31.2 4 Oeste 13 Oeste 0 -- -- 33
2020-06-21 11:00:00 27 10 Oeste 16 Oeste 0 -- -- 44
2020-06-21 10:00:00 24.3 8 Oeste 15 Oeste 0 -- -- 55
2020-06-21 09:00:00 20.2 10 Oeste 15 Noroeste 0 -- -- 70
2020-06-21 08:00:00 17.8 9 Oeste 13 Oeste 0 -- -- 78
2020-06-21 07:00:00 17.9 6 Oeste 13 Noroeste 0 -- -- 80
2020-06-21 06:00:00 18.3 9 Oeste 13 Oeste 0 -- -- 82
2020-06-21 05:00:00 19 6 Oeste 10 Noroeste 0 -- -- 81
2020-06-21 04:00:00 18.3 0 Calma 5 Este 0 -- -- 84
2020-06-21 03:00:00 19.4 0 Calma -- -- 0 -- -- 80
2020-06-21 02:00:00 20.6 0 Calma 4 Este 0 -- -- 77
2020-06-21 01:00:00 21.9 0 Calma 15 Sudeste 0 -- -- 71
2020-06-21 00:00:00 23.4 13 Sudeste 16 Sudeste 0 -- -- 65
2020-06-20 23:00:00 24.2 10 Sudeste 27 Sudeste 0 -- -- 61
2020-06-20 22:00:00 26 17 Sudeste 28 Sudeste 0 -- -- 49
2020-06-20 21:00:00 28 17 Sudeste 32 Sudeste 0 -- -- 44
2020-06-20 20:00:00 29.4 13 Sudeste 31 Sudeste 0 -- -- 41
2020-06-20 19:00:00 30.7 15 Sudeste 35 Sudeste 0 -- -- 40
2020-06-20 18:00:00 31.9 14 Sudeste 38 Sudeste 0 -- -- 40
2020-06-20 17:00:00 33.3 14 Sudeste 34 Sudeste 0 -- -- 37
2020-06-20 16:00:00 33 11 Sudeste 31 Sudeste 0 -- -- 35
2020-06-20 15:00:00 32.3 11 Sudeste 28 Sudeste 0 -- -- 36
2020-06-20 14:00:00 31 9 Este 25 Sudeste 0 -- -- 40
2020-06-20 13:00:00 29.3 9 Este 21 Sudeste 0 -- -- 44
2020-06-20 12:00:00 27.6 4 Sudeste 13 Sudeste 0 -- -- 49
2020-06-20 11:00:00 25 0 Calma 9 Oeste 0 -- -- 57
2020-06-20 10:00:00 21.9 5 Oeste 13 Oeste 0 -- -- 70
2020-06-20 09:00:00 18.9 9 Oeste 13 Oeste 0 -- -- 79
2020-06-20 08:00:00 16.7 6 Oeste 11 Oeste 0 -- -- 87
2020-06-20 07:00:00 15.5 0 Calma -- -- 0 -- -- 87
2020-06-20 06:00:00 16.3 0 Calma 3 Sudeste 0 -- -- 84
2020-06-20 05:00:00 17.7 0 Calma 4 Este 0 -- -- 82
2020-06-20 04:00:00 18.4 0 Calma 5 Este 0 -- -- 80
2020-06-20 03:00:00 18.9 0 Calma 13 Sudeste 0 -- -- 80
2020-06-20 02:00:00 20.1 10 Sudeste 15 Este 0 -- -- 76
2020-06-20 01:00:00 20.6 8 Sudeste 15 Sudeste 0 -- -- 72
2020-06-20 00:00:00 21.5 8 Sudeste 18 Sudeste 0 -- -- 68
2020-06-19 23:00:00 22 9 Sudeste 27 Sudeste 0 -- -- 65
2020-06-19 22:00:00 22.9 12 Sudeste 28 Sudeste 0 -- -- 59
2020-06-19 21:00:00 24.7 13 Sudeste 37 Sudeste 0 -- -- 55
2020-06-19 20:00:00 26.6 17 Sudeste 38 Sudeste 0 -- -- 51
2020-06-19 19:00:00 28.7 14 Sudeste 37 Sudeste 0 -- -- 47
2020-06-19 18:00:00 29.6 17 Sudeste 41 Sudeste 0 -- -- 42
2020-06-19 17:00:00 30.2 10 Sudeste 31 Sudeste 0 -- -- 41
2020-06-19 16:00:00 30.1 13 Sudeste 28 Sudeste 0 -- -- 41
2020-06-19 15:00:00 29.4 11 Sudeste 24 Sudeste 0 -- -- 42
2020-06-19 14:00:00 29 6 Este 26 Sudeste 0 -- -- 45
2020-06-19 13:00:00 26.9 6 Sudeste 19 Sudeste 0 -- -- 51
2020-06-19 12:00:00 26 8 Sudeste 20 Sudeste 0 -- -- 56
2020-06-19 11:00:00 24.8 9 Sudeste 18 Sudeste 0 -- -- 60
2020-06-19 10:00:00 22.5 8 Sudeste 17 Este 0 -- -- 72
2020-06-19 09:00:00 21.2 0 Calma 8 Sudeste 0 -- -- 82
2020-06-19 08:00:00 19.4 0 Calma 6 Sudoeste 0 -- -- 87
2020-06-19 07:00:00 19.4 0 Calma 10 Sudeste 0 -- -- 86
2020-06-19 06:00:00 19.8 4 Sudeste 10 Este 0 -- -- 84
2020-06-19 05:00:00 19.7 2 Este 13 Este 0 -- -- 86
2020-06-19 04:00:00 20.3 9 Sudeste 23 Sudeste 0 -- -- 83
2020-06-19 03:00:00 20.5 10 Sudeste 22 Este 0 -- -- 82
2020-06-19 02:00:00 20.5 9 Sudeste 22 Sudeste 0 -- -- 83
2020-06-19 01:00:00 20.6 14 Sudeste 39 Sudeste 0 -- -- 83
2020-06-19 00:00:00 20.6 13 Sudeste 32 Sudeste 0 -- -- 83
2020-06-18 23:00:00 21.2 8 Sur 29 Sudeste 0 -- -- 80
2020-06-18 22:00:00 21.5 16 Sudeste 30 Sudeste 0 -- -- 77
2020-06-18 21:00:00 22.2 10 Sudeste 33 Sudeste 0 -- -- 72
2020-06-18 20:00:00 23.3 19 Sudeste 42 Sudeste 0 -- -- 65
2020-06-18 19:00:00 25.7 18 Sudeste 41 Sudeste 0 -- -- 55
2020-06-18 18:00:00 27.5 18 Sudeste 37 Este 0 -- -- 47
2020-06-18 17:00:00 28.9 17 Sudeste 38 Sudeste 0 -- -- 42
2020-06-18 16:00:00 30.3 14 Sudeste 29 Sudeste 0 -- -- 40
2020-06-18 15:00:00 30.1 10 Sudeste 23 Sudeste 0 -- -- 40
2020-06-18 14:00:00 28.8 5 Este 18 Este 0 -- -- 44
2020-06-18 13:00:00 27.6 5 Sudeste 17 Sudeste 0 -- -- 47
2020-06-18 12:00:00 25.4 4 Este 12 Este 0 -- -- 51
2020-06-18 11:00:00 23.5 4 Noroeste 13 Norte 0 -- -- 59
2020-06-18 10:00:00 21.7 5 Oeste 11 Oeste 0 -- -- 70
2020-06-18 09:00:00 19.8 3 Oeste 7 Sudoeste 0 -- -- 78
2020-06-18 08:00:00 18.1 0 Calma 6 Nordeste 0 -- -- 83
2020-06-18 07:00:00 18 0 Calma 7 Norte 0 -- -- 88
2020-06-18 06:00:00 17.3 0 Calma -- -- 0 -- -- 91
2020-06-18 05:00:00 16.9 0 Calma -- -- 0 -- -- 92
2020-06-18 04:00:00 17.8 0 Calma 6 Sudeste 0 -- -- 90
2020-06-18 03:00:00 18.6 0 Calma 17 Sudeste 0 -- -- 89
2020-06-18 02:00:00 19.2 8 Sudeste 18 Sudeste 0 -- -- 88
2020-06-18 01:00:00 19.4 9 Sudeste 22 Sudeste 0 -- -- 88
2020-06-18 00:00:00 19.7 15 Sudeste 26 Sudeste 0 -- -- 86
2020-06-17 23:00:00 20.5 16 Sudeste 26 Sudeste 0 -- -- 81
2020-06-17 22:00:00 21.9 16 Sudeste 33 Sudeste 0 -- -- 68
2020-06-17 21:00:00 24.2 15 Sudeste 31 Sudeste 0 -- -- 54
2020-06-17 20:00:00 25.8 15 Sudeste 33 Sudeste 0 -- -- 49
2020-06-17 19:00:00 27.1 16 Sudeste 32 Sudeste 0 -- -- 47
2020-06-17 18:00:00 27.2 19 Sudeste 39 Sudeste 0 -- -- 49
2020-06-17 17:00:00 27.5 18 Sudeste 43 Sudeste 0 -- -- 46
2020-06-17 16:00:00 29.8 16 Sudeste 37 Sudeste 0 -- -- 41
2020-06-17 15:00:00 30 10 Sudeste 27 Sudeste 0 -- -- 36
2020-06-17 14:00:00 29.7 9 Sudeste 23 Sudeste 0 -- -- 37
2020-06-17 13:00:00 28.5 10 Sudeste 21 Sudeste 0 -- -- 40
2020-06-17 12:00:00 27.8 5 Sudeste 14 Sudeste 0 -- -- 42
2020-06-17 11:00:00 25.4 3 Este 9 Este 0 -- -- 46
2020-06-17 10:00:00 21.8 2 Oeste 7 Oeste 0 -- -- 62
2020-06-17 09:00:00 19.3 0 Calma 4 Norte 0 -- -- 73
2020-06-17 08:00:00 17 0 Calma 3 Oeste 0 -- -- 85
2020-06-17 07:00:00 16.1 0 Calma 6 Sur 0 -- -- 88
2020-06-17 06:00:00 16 0 Calma 9 Oeste 0 -- -- 86
2020-06-17 05:00:00 17.2 3 Oeste 9 Oeste 0 -- -- 89
2020-06-17 04:00:00 17.7 0 Calma 5 Este 0 -- -- 88
2020-06-17 03:00:00 18.1 0 Calma 8 Sudeste 0 -- -- 83
2020-06-17 02:00:00 19.4 2 Este 8 Este 0 -- -- 80
2020-06-17 01:00:00 20 0 Calma 6 Sudeste 0 -- -- 67
2020-06-17 00:00:00 21.6 4 Sudeste 19 Sudeste 0 -- -- 62
2020-06-16 23:00:00 22.1 13 Sudeste 25 Sudeste 0 -- -- 60
2020-06-16 22:00:00 24.2 13 Sudeste 20 Sudeste 0 -- -- 48
2020-06-16 21:00:00 26.1 13 Sudeste 24 Sudeste 0 -- -- 46
2020-06-16 20:00:00 28.3 14 Sudeste 26 Sudeste 0 -- -- 44
2020-06-16 19:00:00 28.6 14 Sudeste 28 Sudeste 0 -- -- 44
2020-06-16 18:00:00 29 15 Sudeste 32 Sudeste 0 -- -- 45
2020-06-16 17:00:00 29.2 14 Sudeste 36 Este 0 -- -- 44
2020-06-16 16:00:00 32.5 5 Noroeste 23 Oeste 0 -- -- 31
2020-06-16 15:00:00 31.8 4 Oeste 19 Oeste 0 -- -- 33
2020-06-16 14:00:00 30.5 5 Noroeste 27 Norte 0 -- -- 35
2020-06-16 13:00:00 29.5 12 Oeste 25 Oeste 0 -- -- 36
2020-06-16 12:00:00 29 8 Oeste 25 Oeste 0 -- -- 39
2020-06-16 11:00:00 27 10 Oeste 22 Oeste 0 -- -- 42
2020-06-16 10:00:00 24.4 9 Oeste 14 Oeste 0 -- -- 47
2020-06-16 09:00:00 20.6 5 Oeste 12 Oeste 0 -- -- 56
2020-06-16 08:00:00 18.3 5 Oeste 9 Oeste 0 -- -- 60
2020-06-16 07:00:00 17.6 8 Oeste 14 Oeste 0 -- -- 60
2020-06-16 06:00:00 17.6 8 Oeste 10 Oeste 0 -- -- 60
2020-06-16 05:00:00 18.3 6 Oeste 11 Oeste 0 -- -- 59
2020-06-16 04:00:00 17.9 8 Oeste 10 Oeste 0 -- -- 60
2020-06-16 03:00:00 18.7 0 Calma 7 Nordeste 0 -- -- 59
2020-06-16 02:00:00 19.5 2 Este 7 Norte 0 -- -- 56
2020-06-16 01:00:00 20.7 0 Calma 5 Este 0 -- -- 55
2020-06-16 00:00:00 22.5 5 Sudeste 18 Sudeste 0 -- -- 51
2020-06-15 23:00:00 24.1 10 Sudeste 21 Sudeste 0 -- -- 40
2020-06-15 22:00:00 26.6 7 Sudeste 22 Sudeste 0 -- -- 34
2020-06-15 21:00:00 28.3 15 Sudeste 29 Sudeste 0 -- -- 33
2020-06-15 20:00:00 29.8 17 Sudeste 30 Sur 0 -- -- 31
2020-06-15 19:00:00 30.8 17 Sudeste 37 Sudeste 0 -- -- 31
2020-06-15 18:00:00 31.8 19 Sudeste 38 Este 0 -- -- 31
2020-06-15 17:00:00 33.4 6 Este 27 Sudeste 0 -- -- 29
2020-06-15 16:00:00 32.4 5 Nordeste 18 Nordeste 0 -- -- 30
2020-06-15 15:00:00 31.8 7 Norte 15 Noroeste 0 -- -- 30
2020-06-15 14:00:00 30.5 5 Noroeste 17 Norte 0 -- -- 33
2020-06-15 13:00:00 29.4 5 Oeste 14 Sudoeste 0 -- -- 35
2020-06-15 12:00:00 27.2 7 Oeste 18 Oeste 0 -- -- 40
2020-06-15 11:00:00 25.3 12 Oeste 22 Oeste 0 -- -- 44
2020-06-15 10:00:00 22.1 9 Oeste 17 Noroeste 0 -- -- 51
2020-06-15 09:00:00 18.3 11 Oeste 17 Oeste 0 -- -- 60
2020-06-15 08:00:00 15.7 10 Oeste 15 Noroeste 0 -- -- 67
2020-06-15 07:00:00 15.2 9 Oeste 13 Oeste 0 -- -- 66
2020-06-15 06:00:00 16.2 7 Oeste 9 Oeste 0 -- -- 63
2020-06-15 05:00:00 16.5 4 Oeste 11 Oeste 0 -- -- 63
2020-06-15 04:00:00 16.9 0 Calma 12 Oeste 0 -- -- 62
2020-06-15 03:00:00 18.3 6 Oeste 9 Oeste 0 -- -- 60
2020-06-15 02:00:00 18.2 0 Calma 6 Nordeste 0 -- -- 55
2020-06-15 01:00:00 19 0 Calma 4 Este 0 -- -- 56
2020-06-15 00:00:00 20.4 0 Calma 14 Sudeste 0 -- -- 59
2020-06-14 23:00:00 22.2 9 Sudeste 18 Sudeste 0 -- -- 49
2020-06-14 22:00:00 23.4 12 Sudeste 22 Sudeste 0 -- -- 40
2020-06-14 21:00:00 25.4 12 Sudeste 31 Sudeste 0 -- -- 35
2020-06-14 20:00:00 27 14 Sudeste 34 Este 0 -- -- 34
2020-06-14 19:00:00 29 15 Sudeste 31 Sudeste 0 -- -- 33
2020-06-14 18:00:00 31.5 0 Calma 21 Oeste 0 -- -- 29
2020-06-14 17:00:00 31.4 4 Oeste 19 Oeste 0 -- -- 29
2020-06-14 16:00:00 30.3 6 Norte 23 Noroeste 0 -- -- 30
2020-06-14 15:00:00 30.1 3 Nordeste 13 Sudeste 0 -- -- 31
2020-06-14 14:00:00 28 3 Norte 15 Oeste 0 -- -- 34
2020-06-14 13:00:00 26.6 7 Oeste 19 Oeste 0 -- -- 37
2020-06-14 12:00:00 24.2 11 Oeste 24 Oeste 0 -- -- 42
2020-06-14 11:00:00 22.3 9 Oeste 17 Noroeste 0 -- -- 47
2020-06-14 10:00:00 19.7 9 Oeste 15 Oeste 0 -- -- 55
2020-06-14 09:00:00 16.6 11 Oeste 17 Oeste 0 -- -- 61
2020-06-14 08:00:00 15.3 8 Oeste 12 Oeste 0 -- -- 65
2020-06-14 07:00:00 15.4 7 Oeste 10 Oeste 0 -- -- 63
2020-06-14 06:00:00 15.2 8 Oeste 14 Oeste 0 -- -- 63
2020-06-14 05:00:00 15.6 10 Oeste 15 Oeste 0 -- -- 62
2020-06-14 04:00:00 15.9 4 Oeste 7 Noroeste 0 -- -- 60
2020-06-14 03:00:00 16.3 0 Calma 8 Nordeste 0 -- -- 55
2020-06-14 02:00:00 17.2 0 Calma 7 Este 0 -- -- 54
2020-06-14 01:00:00 17.9 0 Calma 10 Sudeste 0 -- -- 49
2020-06-14 00:00:00 20.3 10 Sudeste 18 Sudeste 0 -- -- 42
2020-06-13 23:00:00 21.1 9 Sudeste 29 Sudeste 0 -- -- 41
2020-06-13 22:00:00 22.3 10 Sudeste 23 Sudeste 0 -- -- 39
2020-06-13 21:00:00 24.7 12 Sudeste 27 Sudeste 0 -- -- 35
2020-06-13 20:00:00 26.7 14 Sudeste 26 Sudeste 0 -- -- 34
2020-06-13 19:00:00 29.3 3 Norte 17 Noroeste 0 -- -- 29
2020-06-13 18:00:00 28.7 6 Oeste 19 Sudoeste 0 -- -- 30
2020-06-13 17:00:00 28.2 11 Oeste 22 Sudoeste 0 -- -- 31
2020-06-13 16:00:00 27.7 6 Noroeste 22 Oeste 0 -- -- 33
2020-06-13 15:00:00 27 5 Noroeste 23 Noroeste 0 -- -- 34
2020-06-13 14:00:00 25.6 5 Oeste 31 Noroeste 0 -- -- 36
2020-06-13 13:00:00 24.8 9 Noroeste 32 Oeste 0 -- -- 39
2020-06-13 12:00:00 24 9 Oeste 30 Noroeste 0 -- -- 41
2020-06-13 11:00:00 22.6 14 Oeste 33 Oeste 0 -- -- 45
2020-06-13 10:00:00 21.1 7 Noroeste 24 Oeste 0 -- -- 50
2020-06-13 09:00:00 18.7 4 Oeste 12 Oeste 0 -- -- 53
2020-06-13 08:00:00 16.6 5 Oeste 12 Noroeste 0 -- -- 57
2020-06-13 07:00:00 14.7 0 Calma 10 Oeste 0 -- -- 58
2020-06-13 06:00:00 16.3 3 Oeste 14 Oeste 0 -- -- 53
2020-06-13 05:00:00 16.7 4 Noroeste 14 Noroeste 0 -- -- 50
2020-06-13 04:00:00 17.5 3 Noroeste 10 Oeste 0 -- -- 45
2020-06-13 03:00:00 18.4 7 Oeste 16 Oeste 0 -- -- 41
2020-06-13 02:00:00 19.7 4 Noroeste 21 Noroeste 0 -- -- 39
2020-06-13 01:00:00 20.4 6 Oeste 22 Oeste 0 -- -- 38
2020-06-13 00:00:00 21.2 4 Noroeste 14 Noroeste 0 -- -- 36
2020-06-12 23:00:00 22.1 3 Noroeste 17 Oeste 0 -- -- 34
2020-06-12 22:00:00 22.9 3 Noroeste 20 Norte 0 -- -- 33
2020-06-12 21:00:00 24.1 3 Noroeste 20 Norte 0 -- -- 31
2020-06-12 20:00:00 26.1 6 Noroeste 25 Norte 0 -- -- 29
2020-06-12 19:00:00 27 6 Noroeste 27 Oeste 0 -- -- 28
2020-06-12 18:00:00 27.7 10 Norte 30 Norte 0 -- -- 28
2020-06-12 17:00:00 28.4 9 Oeste 33 Oeste 0 -- -- 30
2020-06-12 16:00:00 27.7 11 Oeste 30 Norte 0 -- -- 31
2020-06-12 15:00:00 27.4 7 Noroeste 24 Norte 0 -- -- 34
2020-06-12 14:00:00 25.9 6 Noroeste 26 Oeste 0 -- -- 39
2020-06-12 13:00:00 24.1 9 Oeste 20 Sudoeste 0 -- -- 41
2020-06-12 12:00:00 25.7 5 Noroeste 21 Norte 0 -- -- 44
2020-06-12 11:00:00 23.3 2 Nordeste 10 Norte 0 -- -- 46
2020-06-12 10:00:00 22.7 3 Norte 12 Norte 0 -- -- 49
2020-06-12 09:00:00 20.4 0 Calma 6 Norte 0 -- -- 57
2020-06-12 08:00:00 17.2 0 Calma 10 Oeste 0 -- -- 67
2020-06-12 07:00:00 15.7 0 Calma -- -- 0 -- -- 67
2020-06-12 06:00:00 16.2 0 Calma -- -- 0 -- -- 63
2020-06-12 05:00:00 17 0 Calma 12 Oeste 0 -- -- 60
2020-06-12 04:00:00 20.1 10 Oeste 17 Oeste 0 -- -- 51
2020-06-12 03:00:00 20.5 0 Calma 12 Oeste 0 -- -- 49
2020-06-12 02:00:00 20.4 2 Oeste 17 Oeste 0 -- -- 45
2020-06-12 01:00:00 22.1 12 Oeste 24 Oeste 0 -- -- 39
2020-06-12 00:00:00 22.9 9 Oeste 18 Oeste 0 -- -- 37